createdAt,value
2019-02-17T00:00:03.053Z,0.00
2019-02-17T00:01:03.175Z,0.00
2019-02-17T00:02:03.295Z,0.00
2019-02-17T00:03:03.423Z,0.00
2019-02-17T00:04:03.550Z,0.00
2019-02-17T00:05:03.675Z,0.00
2019-02-17T00:06:03.796Z,0.00
2019-02-17T00:07:03.923Z,0.00
2019-02-17T00:08:04.044Z,0.00
2019-02-17T00:09:04.185Z,0.00
2019-02-17T00:10:04.324Z,0.00
2019-02-17T00:11:04.451Z,0.00
2019-02-17T00:12:04.560Z,0.00
2019-02-17T00:13:04.685Z,0.00
2019-02-17T00:14:04.808Z,0.00
2019-02-17T00:15:04.947Z,0.00
2019-02-17T00:16:05.067Z,0.00
2019-02-17T00:17:05.189Z,0.00
2019-02-17T00:18:05.315Z,0.00
2019-02-17T00:19:05.442Z,0.00
2019-02-17T00:20:07.981Z,0.00
2019-02-17T00:21:05.702Z,0.00
2019-02-17T00:22:05.809Z,0.00
2019-02-17T00:23:05.927Z,0.00
2019-02-17T00:24:06.053Z,0.00
2019-02-17T00:25:06.176Z,0.00
2019-02-17T00:26:06.304Z,0.00
2019-02-17T00:27:06.421Z,0.00
2019-02-17T00:28:06.545Z,0.00
2019-02-17T00:29:06.675Z,0.00
2019-02-17T00:30:06.799Z,0.00
2019-02-17T00:31:06.927Z,0.00
2019-02-17T00:32:07.045Z,0.00
2019-02-17T00:33:07.172Z,0.00
2019-02-17T00:34:07.325Z,0.00
2019-02-17T00:35:07.446Z,0.00
2019-02-17T00:36:07.569Z,0.00
2019-02-17T00:37:07.688Z,0.00
2019-02-17T00:38:07.817Z,0.00
2019-02-17T00:39:07.956Z,0.00
2019-02-17T00:40:08.067Z,0.00
2019-02-17T00:41:08.217Z,0.00
2019-02-17T00:42:08.325Z,0.00
2019-02-17T00:43:08.452Z,0.00
2019-02-17T00:44:08.582Z,0.00
2019-02-17T00:45:08.706Z,0.00
2019-02-17T00:46:08.834Z,0.00
2019-02-17T00:47:08.962Z,0.00
2019-02-17T00:48:09.093Z,0.00
2019-02-17T00:49:09.221Z,0.00
2019-02-17T00:50:09.354Z,0.00
2019-02-17T00:51:09.472Z,0.00
2019-02-17T00:52:09.597Z,0.00
2019-02-17T00:53:09.723Z,0.00
2019-02-17T00:54:09.857Z,0.00
2019-02-17T00:55:09.979Z,0.00
2019-02-17T00:56:10.105Z,0.00
2019-02-17T00:57:10.242Z,0.00
2019-02-17T00:58:10.362Z,0.00
2019-02-17T00:59:10.689Z,0.00
2019-02-17T01:00:10.603Z,0.00
2019-02-17T01:01:10.732Z,0.00
2019-02-17T01:02:10.858Z,0.00
2019-02-17T01:03:10.987Z,0.00
2019-02-17T01:04:11.116Z,0.00
2019-02-17T01:05:11.236Z,0.00
2019-02-17T01:06:11.363Z,0.00
2019-02-17T01:07:11.482Z,0.00
2019-02-17T01:08:11.611Z,0.00
2019-02-17T01:09:11.738Z,0.00
2019-02-17T01:10:11.858Z,0.00
2019-02-17T01:11:11.988Z,0.00
2019-02-17T01:12:12.111Z,0.00
2019-02-17T01:13:12.233Z,0.00
2019-02-17T01:14:12.377Z,0.00
2019-02-17T01:15:12.493Z,0.00
2019-02-17T01:16:12.621Z,0.00
2019-02-17T01:17:12.741Z,0.00
2019-02-17T01:18:12.863Z,0.00
2019-02-17T01:19:12.987Z,0.00
2019-02-17T01:20:13.103Z,0.00
2019-02-17T01:21:13.237Z,0.00
2019-02-17T01:22:13.370Z,0.00
2019-02-17T01:23:13.485Z,0.00
2019-02-17T01:24:13.614Z,0.00
2019-02-17T01:25:13.749Z,0.00
2019-02-17T01:26:13.870Z,0.00
2019-02-17T01:27:14.013Z,0.00
2019-02-17T01:28:14.108Z,0.00
2019-02-17T01:29:20.374Z,0.00
2019-02-17T01:30:14.349Z,0.00
2019-02-17T01:31:14.479Z,0.00
2019-02-17T01:32:14.596Z,0.00
2019-02-17T01:33:14.723Z,0.00
2019-02-17T01:34:14.847Z,0.00
2019-02-17T01:35:14.989Z,0.00
2019-02-17T01:36:15.101Z,0.00
2019-02-17T01:37:15.232Z,0.00
2019-02-17T01:38:15.348Z,0.00
2019-02-17T01:39:15.471Z,0.00
2019-02-17T01:40:15.590Z,0.00
2019-02-17T01:41:15.719Z,0.00
2019-02-17T01:42:15.838Z,0.00
2019-02-17T01:43:15.974Z,0.00
2019-02-17T01:44:16.091Z,0.00
2019-02-17T01:45:16.214Z,0.00
2019-02-17T01:46:16.343Z,0.00
2019-02-17T01:47:16.485Z,0.00
2019-02-17T01:48:16.589Z,0.00
2019-02-17T01:49:16.716Z,0.00
2019-02-17T01:50:16.838Z,0.00
2019-02-17T01:51:16.963Z,0.00
2019-02-17T01:52:17.086Z,0.00
2019-02-17T01:53:17.213Z,0.00
2019-02-17T01:54:17.339Z,0.00
2019-02-17T01:55:17.460Z,0.00
2019-02-17T01:56:17.598Z,0.00
2019-02-17T01:57:17.726Z,0.00
2019-02-17T01:58:17.843Z,0.00
2019-02-17T01:59:17.969Z,0.00
2019-02-17T02:00:18.087Z,0.00
2019-02-17T02:01:18.211Z,0.00
2019-02-17T02:02:18.346Z,0.00
2019-02-17T02:03:18.465Z,0.00
2019-02-17T02:04:18.590Z,0.00
2019-02-17T02:05:18.743Z,0.00
2019-02-17T02:06:18.834Z,0.00
2019-02-17T02:07:18.964Z,0.00
2019-02-17T02:08:19.093Z,0.00
2019-02-17T02:09:19.225Z,0.00
2019-02-17T02:10:19.340Z,0.00
2019-02-17T02:11:19.464Z,0.00
2019-02-17T02:12:19.590Z,0.00
2019-02-17T02:13:19.735Z,0.00
2019-02-17T02:14:19.857Z,0.00
2019-02-17T02:15:19.976Z,0.00
2019-02-17T02:16:20.109Z,0.00
2019-02-17T02:17:20.237Z,0.00
2019-02-17T02:18:20.367Z,0.00
2019-02-17T02:19:20.492Z,0.00
2019-02-17T02:20:20.615Z,0.00
2019-02-17T02:21:20.740Z,0.00
2019-02-17T02:22:20.871Z,0.00
2019-02-17T02:23:21.003Z,0.00
2019-02-17T02:24:21.127Z,0.00
2019-02-17T02:25:21.253Z,0.00
2019-02-17T02:26:21.385Z,0.00
2019-02-17T02:27:21.512Z,0.00
2019-02-17T02:28:21.636Z,0.00
2019-02-17T02:29:21.757Z,0.00
2019-02-17T02:30:21.886Z,0.00
2019-02-17T02:31:22.012Z,0.00
2019-02-17T02:32:22.140Z,0.00
2019-02-17T02:33:22.261Z,0.00
2019-02-17T02:34:22.387Z,0.00
2019-02-17T02:35:22.513Z,0.00
2019-02-17T02:36:22.638Z,0.00
2019-02-17T02:37:22.762Z,0.00
2019-02-17T02:38:22.886Z,0.00
2019-02-17T02:39:23.016Z,0.00
2019-02-17T02:40:23.149Z,0.00
2019-02-17T02:41:33.860Z,0.00
2019-02-17T02:42:23.389Z,0.00
2019-02-17T02:43:23.517Z,0.00
2019-02-17T02:44:23.645Z,0.00
2019-02-17T02:45:23.774Z,0.00
2019-02-17T02:46:23.891Z,0.00
2019-02-17T02:47:24.012Z,0.00
2019-02-17T02:48:24.142Z,0.00
2019-02-17T02:49:24.268Z,0.00
2019-02-17T02:50:24.388Z,0.00
2019-02-17T02:51:24.522Z,0.00
2019-02-17T02:52:24.643Z,0.00
2019-02-17T02:53:24.769Z,0.00
2019-02-17T02:54:24.891Z,0.00
2019-02-17T02:55:25.015Z,0.00
2019-02-17T02:56:25.147Z,0.00
2019-02-17T02:57:25.270Z,0.00
2019-02-17T02:58:25.396Z,0.00
2019-02-17T02:59:25.599Z,0.00
2019-02-17T03:00:25.650Z,0.00
2019-02-17T03:01:25.776Z,0.00
2019-02-17T03:02:25.908Z,0.00
2019-02-17T03:03:26.029Z,0.00
2019-02-17T03:04:26.156Z,0.00
2019-02-17T03:05:26.280Z,0.00
2019-02-17T03:06:26.412Z,0.00
2019-02-17T03:07:26.533Z,0.00
2019-02-17T03:08:26.658Z,0.00
2019-02-17T03:09:26.782Z,0.00
2019-02-17T03:10:26.905Z,0.00
2019-02-17T03:11:27.030Z,0.00
2019-02-17T03:12:27.158Z,0.00
2019-02-17T03:13:27.282Z,0.00
2019-02-17T03:14:27.408Z,0.00
2019-02-17T03:15:27.531Z,0.00
2019-02-17T03:16:27.657Z,0.00
2019-02-17T03:17:27.786Z,0.00
2019-02-17T03:18:27.910Z,0.00
2019-02-17T03:19:28.034Z,0.00
2019-02-17T03:20:28.166Z,0.00
2019-02-17T03:21:28.284Z,0.00
2019-02-17T03:22:28.411Z,0.00
2019-02-17T03:23:28.536Z,0.00
2019-02-17T03:24:28.670Z,0.00
2019-02-17T03:25:28.784Z,0.00
2019-02-17T03:26:28.920Z,0.00
2019-02-17T03:27:29.044Z,0.00
2019-02-17T03:28:29.174Z,0.00
2019-02-17T03:29:29.287Z,0.00
2019-02-17T03:30:29.413Z,0.00
2019-02-17T03:31:29.539Z,0.00
2019-02-17T03:32:29.664Z,0.00
2019-02-17T03:33:29.801Z,0.00
2019-02-17T03:34:29.921Z,0.00
2019-02-17T03:35:30.049Z,0.00
2019-02-17T03:36:30.169Z,0.00
2019-02-17T03:37:30.300Z,0.00
2019-02-17T03:38:30.424Z,0.00
2019-02-17T03:39:30.554Z,0.00
2019-02-17T03:40:30.773Z,0.00
2019-02-17T03:41:30.805Z,0.00
2019-02-17T03:42:30.933Z,0.00
2019-02-17T03:43:31.054Z,0.00
2019-02-17T03:44:31.176Z,0.00
2019-02-17T03:45:31.304Z,0.00
2019-02-17T03:46:31.434Z,0.00
2019-02-17T03:47:31.550Z,0.00
2019-02-17T03:48:31.679Z,0.00
2019-02-17T03:49:31.812Z,0.00
2019-02-17T03:50:31.939Z,0.00
2019-02-17T03:51:32.061Z,0.00
2019-02-17T03:52:32.186Z,0.00
2019-02-17T03:53:32.320Z,0.00
2019-02-17T03:54:32.445Z,0.00
2019-02-17T03:55:32.571Z,0.00
2019-02-17T03:56:32.691Z,0.00
2019-02-17T03:57:32.829Z,0.00
2019-02-17T03:58:32.950Z,0.00
2019-02-17T03:59:33.072Z,0.00
2019-02-17T04:00:33.207Z,0.00
2019-02-17T04:01:33.331Z,0.00
2019-02-17T04:02:33.526Z,0.00
2019-02-17T04:03:33.590Z,0.00
2019-02-17T04:04:33.707Z,0.00
2019-02-17T04:05:33.833Z,0.00
2019-02-17T04:06:33.960Z,0.00
2019-02-17T04:07:34.093Z,0.00
2019-02-17T04:08:34.210Z,0.00
2019-02-17T04:09:34.341Z,0.00
2019-02-17T04:10:34.479Z,0.00
2019-02-17T04:11:34.604Z,0.00
2019-02-17T04:12:34.730Z,0.00
2019-02-17T04:13:34.862Z,0.00
2019-02-17T04:14:35.001Z,0.00
2019-02-17T04:15:35.105Z,0.00
2019-02-17T04:16:35.229Z,0.00
2019-02-17T04:17:35.362Z,0.00
2019-02-17T04:18:35.500Z,0.00
2019-02-17T04:19:35.617Z,0.00
2019-02-17T04:20:35.740Z,0.00
2019-02-17T04:21:35.863Z,0.00
2019-02-17T04:22:35.992Z,0.00
2019-02-17T04:23:36.116Z,0.00
2019-02-17T04:24:36.250Z,0.00
2019-02-17T04:25:36.381Z,0.00
2019-02-17T04:26:36.509Z,0.00
2019-02-17T04:27:36.635Z,0.00
2019-02-17T04:28:36.757Z,0.00
2019-02-17T04:29:36.885Z,0.00
2019-02-17T04:30:37.010Z,0.00
2019-02-17T04:31:37.135Z,0.00
2019-02-17T04:32:37.266Z,0.00
2019-02-17T04:33:37.384Z,0.00
2019-02-17T04:34:37.520Z,0.00
2019-02-17T04:35:37.643Z,0.00
2019-02-17T04:36:37.769Z,0.00
2019-02-17T04:37:37.892Z,0.00
2019-02-17T04:38:38.007Z,0.00
2019-02-17T04:39:38.204Z,0.00
2019-02-17T04:40:38.240Z,0.00
2019-02-17T04:41:38.390Z,0.00
2019-02-17T04:42:38.519Z,0.00
2019-02-17T04:43:38.593Z,0.00
2019-02-17T04:44:38.711Z,0.00
2019-02-17T04:47:10.910Z,0.00
2019-02-17T04:48:11.029Z,0.00
2019-02-17T04:49:11.165Z,0.00
2019-02-17T04:50:11.283Z,0.00
2019-02-17T04:51:11.408Z,0.00
2019-02-17T04:52:11.538Z,0.00
2019-02-17T04:53:11.657Z,0.00
2019-02-17T04:54:11.778Z,0.00
2019-02-17T04:55:11.903Z,0.00
2019-02-17T04:56:12.029Z,0.00
2019-02-17T04:57:12.154Z,0.00
2019-02-17T04:58:12.277Z,0.00
2019-02-17T04:59:12.398Z,0.00
2019-02-17T05:00:12.530Z,0.00
2019-02-17T05:01:12.654Z,0.00
2019-02-17T05:02:12.784Z,0.00
2019-02-17T05:03:12.905Z,0.00
2019-02-17T05:04:13.029Z,0.00
2019-02-17T05:05:13.156Z,0.00
2019-02-17T05:06:13.296Z,0.00
2019-02-17T05:07:13.416Z,0.00
2019-02-17T05:08:13.529Z,0.00
2019-02-17T05:09:13.648Z,0.00
2019-02-17T05:10:13.773Z,0.00
2019-02-17T05:11:13.896Z,0.00
2019-02-17T05:12:14.021Z,0.00
2019-02-17T05:13:14.143Z,0.00
2019-02-17T05:14:14.261Z,0.00
2019-02-17T05:15:14.473Z,0.00
2019-02-17T05:16:14.518Z,0.00
2019-02-17T05:17:14.641Z,0.00
2019-02-17T05:18:14.757Z,0.00
2019-02-17T05:19:14.879Z,0.00
2019-02-17T05:20:15.012Z,0.00
2019-02-17T05:21:15.149Z,0.00
2019-02-17T05:22:15.260Z,0.00
2019-02-17T05:23:15.381Z,0.00
2019-02-17T05:24:15.510Z,0.00
2019-02-17T05:25:15.640Z,0.00
2019-02-17T05:26:15.768Z,0.00
2019-02-17T05:27:15.883Z,0.00
2019-02-17T05:28:16.007Z,0.00
2019-02-17T05:29:16.134Z,0.00
2019-02-17T05:30:16.267Z,0.00
2019-02-17T05:31:16.385Z,0.00
2019-02-17T05:32:16.512Z,0.00
2019-02-17T05:33:16.636Z,0.00
2019-02-17T05:34:16.765Z,0.00
2019-02-17T05:35:16.885Z,0.00
2019-02-17T05:36:17.014Z,0.00
2019-02-17T05:37:17.130Z,0.00
2019-02-17T05:38:17.303Z,0.00
2019-02-17T05:39:17.381Z,0.00
2019-02-17T05:40:17.516Z,0.00
2019-02-17T05:41:17.631Z,0.00
2019-02-17T05:42:17.754Z,0.00
2019-02-17T05:43:17.877Z,0.00
2019-02-17T05:44:18.002Z,0.00
2019-02-17T05:45:18.126Z,0.00
2019-02-17T05:46:18.254Z,0.00
2019-02-17T05:47:18.379Z,0.00
2019-02-17T05:48:18.503Z,0.00
2019-02-17T05:49:18.629Z,0.00
2019-02-17T05:50:18.753Z,0.00
2019-02-17T05:51:18.876Z,0.00
2019-02-17T05:52:19.003Z,0.00
2019-02-17T05:53:19.130Z,0.00
2019-02-17T05:54:19.251Z,0.00
2019-02-17T05:55:19.429Z,0.00
2019-02-17T05:56:19.494Z,0.00
2019-02-17T05:57:19.618Z,0.00
2019-02-17T05:58:19.755Z,0.00
2019-02-17T05:59:19.875Z,0.00
2019-02-17T06:00:20.013Z,0.00
2019-02-17T06:01:20.133Z,0.00
2019-02-17T06:02:20.241Z,0.00
2019-02-17T06:03:20.374Z,0.00
2019-02-17T06:04:20.501Z,0.00
2019-02-17T06:05:20.618Z,0.00
2019-02-17T06:06:20.745Z,0.00
2019-02-17T06:07:20.868Z,0.00
2019-02-17T06:08:20.996Z,0.00
2019-02-17T06:09:21.118Z,0.00
2019-02-17T06:10:21.246Z,0.00
2019-02-17T06:11:21.362Z,0.00
2019-02-17T06:12:21.489Z,0.00
2019-02-17T06:13:21.611Z,0.00
2019-02-17T06:14:21.742Z,0.00
2019-02-17T06:15:21.868Z,0.00
2019-02-17T06:16:22.000Z,0.00
2019-02-17T06:17:22.125Z,0.00
2019-02-17T06:18:22.233Z,0.00
2019-02-17T06:19:22.356Z,0.00
2019-02-17T06:20:22.493Z,0.00
2019-02-17T06:21:22.606Z,0.00
2019-02-17T06:22:22.729Z,0.00
2019-02-17T06:23:22.855Z,0.00
2019-02-17T06:24:22.984Z,0.00
2019-02-17T06:25:23.110Z,5.63
2019-02-17T06:26:23.227Z,5.63
2019-02-17T06:27:23.357Z,5.63
2019-02-17T06:28:23.483Z,5.63
2019-02-17T06:29:23.620Z,5.63
2019-02-17T06:30:23.743Z,5.63
2019-02-17T06:31:23.866Z,5.63
2019-02-17T06:32:23.988Z,5.63
2019-02-17T06:33:24.110Z,5.63
2019-02-17T06:34:24.236Z,5.63
2019-02-17T06:35:24.359Z,11.25
2019-02-17T06:36:24.501Z,11.25
2019-02-17T06:37:24.623Z,11.25
2019-02-17T06:38:24.745Z,11.25
2019-02-17T06:39:24.872Z,11.25
2019-02-17T06:40:24.992Z,11.25
2019-02-17T06:41:25.124Z,16.88
2019-02-17T06:42:25.238Z,16.88
2019-02-17T06:43:25.360Z,16.88
2019-02-17T06:44:25.484Z,16.88
2019-02-17T06:45:25.616Z,16.88
2019-02-17T06:46:25.731Z,22.50
2019-02-17T06:47:25.859Z,22.50
2019-02-17T06:48:25.991Z,22.50
2019-02-17T06:49:26.119Z,22.50
2019-02-17T06:50:26.241Z,22.50
2019-02-17T06:51:26.373Z,28.13
2019-02-17T06:52:26.496Z,28.13
2019-02-17T06:53:26.627Z,28.13
2019-02-17T06:54:26.749Z,28.13
2019-02-17T06:55:26.887Z,28.13
2019-02-17T06:56:27.002Z,33.75
2019-02-17T06:57:27.126Z,33.75
2019-02-17T06:58:27.251Z,33.75
2019-02-17T06:59:27.379Z,33.75
2019-02-17T07:00:27.514Z,33.75
2019-02-17T07:01:27.631Z,39.38
2019-02-17T07:02:27.760Z,39.38
2019-02-17T07:03:27.890Z,39.38
2019-02-17T07:04:28.042Z,39.38
2019-02-17T07:05:28.137Z,45.00
2019-02-17T07:06:28.264Z,45.00
2019-02-17T07:07:29.067Z,45.00
2019-02-17T07:08:28.513Z,45.00
2019-02-17T07:09:28.636Z,50.63
2019-02-17T07:10:28.764Z,50.63
2019-02-17T07:11:28.916Z,50.63
2019-02-17T07:12:29.017Z,50.63
2019-02-17T07:13:29.141Z,50.63
2019-02-17T07:14:29.265Z,50.63
2019-02-17T07:15:29.384Z,50.63
2019-02-17T07:16:29.514Z,50.63
2019-02-17T07:17:29.634Z,50.63
2019-02-17T07:18:29.764Z,50.63
2019-02-17T07:19:29.886Z,50.63
2019-02-17T07:20:30.007Z,56.25
2019-02-17T07:21:30.152Z,56.25
2019-02-17T07:22:30.262Z,56.25
2019-02-17T07:23:30.389Z,61.88
2019-02-17T07:24:30.514Z,61.88
2019-02-17T07:25:30.734Z,61.88
2019-02-17T07:26:30.769Z,67.50
2019-02-17T07:27:30.894Z,67.50
2019-02-17T07:28:31.025Z,67.50
2019-02-17T07:29:31.143Z,67.50
2019-02-17T07:30:31.263Z,73.13
2019-02-17T07:31:34.814Z,73.13
2019-02-17T07:32:31.518Z,73.13
2019-02-17T07:33:31.653Z,78.75
2019-02-17T07:34:31.780Z,78.75
2019-02-17T07:35:31.902Z,78.75
2019-02-17T07:36:32.025Z,78.75
2019-02-17T07:37:33.880Z,84.38
2019-02-17T07:38:32.276Z,84.38
2019-02-17T07:39:32.413Z,90.00
2019-02-17T07:40:32.529Z,90.00
2019-02-17T07:41:32.660Z,90.00
2019-02-17T07:42:32.792Z,95.63
2019-02-17T07:43:32.911Z,95.63
2019-02-17T07:44:33.035Z,95.63
2019-02-17T07:45:33.166Z,101.25
2019-02-17T07:46:33.293Z,101.25
2019-02-17T07:47:33.422Z,106.88
2019-02-17T07:48:33.543Z,112.50
2019-02-17T07:49:33.670Z,118.13
2019-02-17T07:50:33.803Z,118.13
2019-02-17T07:51:33.927Z,118.13
2019-02-17T07:52:34.381Z,118.13
2019-02-17T07:53:34.169Z,118.13
2019-02-17T07:54:34.292Z,123.75
2019-02-17T07:55:34.416Z,123.75
2019-02-17T07:56:34.543Z,123.75
2019-02-17T07:57:34.670Z,129.38
2019-02-17T07:58:34.799Z,129.38
2019-02-17T07:59:34.920Z,129.38
2019-02-17T08:00:35.042Z,135.00
2019-02-17T08:01:44.721Z,135.00
2019-02-17T08:02:35.295Z,135.00
2019-02-17T08:03:35.421Z,135.00
2019-02-17T08:04:35.551Z,140.63
2019-02-17T08:05:35.680Z,140.63
2019-02-17T08:06:35.817Z,140.63
2019-02-17T08:07:35.936Z,140.63
2019-02-17T08:08:36.062Z,140.63
2019-02-17T08:09:36.204Z,146.25
2019-02-17T08:10:36.325Z,146.25
2019-02-17T08:11:36.449Z,146.25
2019-02-17T08:12:36.584Z,151.88
2019-02-17T08:13:36.712Z,151.88
2019-02-17T08:14:36.824Z,151.88
2019-02-17T08:15:36.954Z,151.88
2019-02-17T08:16:37.072Z,151.88
2019-02-17T08:17:37.206Z,151.88
2019-02-17T08:18:37.355Z,151.88
2019-02-17T08:19:37.484Z,151.88
2019-02-17T08:20:37.616Z,151.88
2019-02-17T08:21:37.735Z,157.50
2019-02-17T08:22:37.860Z,151.88
2019-02-17T08:23:37.987Z,151.88
2019-02-17T08:24:38.121Z,151.88
2019-02-17T08:25:38.234Z,157.50
2019-02-17T08:26:38.368Z,157.50
2019-02-17T08:27:38.487Z,157.50
2019-02-17T08:28:38.612Z,163.13
2019-02-17T08:29:38.729Z,163.13
2019-02-17T08:30:38.861Z,163.13
2019-02-17T08:31:38.984Z,163.13
2019-02-17T08:32:39.111Z,168.75
2019-02-17T08:33:39.249Z,168.75
2019-02-17T08:34:39.363Z,174.38
2019-02-17T08:35:39.485Z,174.38
2019-02-17T08:36:39.637Z,174.38
2019-02-17T08:37:39.790Z,180.00
2019-02-17T08:38:39.902Z,185.63
2019-02-17T08:39:40.018Z,185.63
2019-02-17T08:40:40.153Z,191.25
2019-02-17T08:41:40.281Z,191.25
2019-02-17T08:42:40.407Z,196.88
2019-02-17T08:43:40.529Z,196.88
2019-02-17T08:44:40.652Z,202.50
2019-02-17T08:45:40.788Z,202.50
2019-02-17T08:46:40.916Z,208.13
2019-02-17T08:47:41.042Z,208.13
2019-02-17T08:48:41.167Z,208.13
2019-02-17T08:49:41.301Z,208.13
2019-02-17T08:50:41.428Z,208.13
2019-02-17T08:51:41.547Z,208.13
2019-02-17T08:52:41.671Z,213.75
2019-02-17T08:53:41.793Z,213.75
2019-02-17T08:54:41.926Z,213.75
2019-02-17T08:55:42.052Z,225.00
2019-02-17T08:56:42.186Z,230.63
2019-02-17T08:57:42.312Z,230.63
2019-02-17T08:58:42.436Z,236.25
2019-02-17T08:59:42.552Z,236.25
2019-02-17T09:00:42.700Z,236.25
2019-02-17T09:01:42.809Z,241.88
2019-02-17T09:02:42.940Z,247.50
2019-02-17T09:03:43.112Z,247.50
2019-02-17T09:04:43.194Z,253.13
2019-02-17T09:05:44.367Z,253.13
2019-02-17T09:06:43.442Z,253.13
2019-02-17T09:07:43.564Z,258.75
2019-02-17T09:08:43.694Z,258.75
2019-02-17T09:09:43.819Z,258.75
2019-02-17T09:10:43.937Z,264.38
2019-02-17T09:11:44.064Z,270.00
2019-02-17T09:12:44.201Z,270.00
2019-02-17T09:13:44.330Z,275.63
2019-02-17T09:14:44.451Z,275.63
2019-02-17T09:15:44.580Z,275.63
2019-02-17T09:16:44.694Z,281.25
2019-02-17T09:17:44.823Z,286.88
2019-02-17T09:18:44.982Z,286.88
2019-02-17T09:19:45.080Z,292.50
2019-02-17T09:20:45.226Z,292.50
2019-02-17T09:21:45.355Z,292.50
2019-02-17T09:22:45.476Z,292.50
2019-02-17T09:23:45.612Z,292.50
2019-02-17T09:24:45.740Z,298.13
2019-02-17T09:25:45.868Z,298.13
2019-02-17T09:26:45.998Z,298.13
2019-02-17T09:27:46.127Z,309.38
2019-02-17T09:28:46.257Z,315.00
2019-02-17T09:29:46.392Z,320.63
2019-02-17T09:30:46.518Z,320.63
2019-02-17T09:31:46.650Z,320.63
2019-02-17T09:32:46.779Z,320.63
2019-02-17T09:33:46.905Z,326.25
2019-02-17T09:34:47.034Z,326.25
2019-02-17T09:35:47.163Z,315.00
2019-02-17T09:36:47.292Z,309.38
2019-02-17T09:37:47.409Z,309.38
2019-02-17T09:38:47.534Z,320.63
2019-02-17T09:39:47.666Z,326.25
2019-02-17T09:40:48.099Z,326.25
2019-02-17T09:41:47.908Z,331.88
2019-02-17T09:42:48.041Z,331.88
2019-02-17T09:43:48.168Z,331.88
2019-02-17T09:44:48.299Z,331.88
2019-02-17T09:45:48.434Z,326.25
2019-02-17T09:46:48.549Z,326.25
2019-02-17T09:47:48.680Z,315.00
2019-02-17T09:48:48.814Z,315.00
2019-02-17T09:49:48.957Z,315.00
2019-02-17T09:50:49.122Z,315.00
2019-02-17T09:51:49.258Z,320.63
2019-02-17T09:52:49.377Z,331.88
2019-02-17T09:53:49.494Z,343.13
2019-02-17T09:54:49.623Z,343.13
2019-02-17T09:55:49.766Z,320.63
2019-02-17T09:56:49.881Z,354.38
2019-02-17T09:57:49.992Z,360.00
2019-02-17T09:58:50.152Z,365.63
2019-02-17T09:59:50.266Z,382.50
2019-02-17T10:00:50.426Z,376.88
2019-02-17T10:01:50.554Z,382.50
2019-02-17T10:02:50.692Z,382.50
2019-02-17T10:03:50.821Z,388.13
2019-02-17T10:04:50.945Z,393.75
2019-02-17T10:05:51.069Z,393.75
2019-02-17T10:06:51.200Z,393.75
2019-02-17T10:07:51.401Z,399.38
2019-02-17T10:08:51.468Z,405.00
2019-02-17T10:09:51.608Z,410.63
2019-02-17T10:10:51.727Z,410.63
2019-02-17T10:11:51.852Z,416.25
2019-02-17T10:12:51.983Z,421.88
2019-02-17T10:13:52.112Z,427.50
2019-02-17T10:14:52.246Z,427.50
2019-02-17T10:15:52.371Z,433.13
2019-02-17T10:16:52.494Z,433.13
2019-02-17T10:17:52.644Z,433.13
2019-02-17T10:18:52.769Z,433.13
2019-02-17T10:19:52.916Z,433.13
2019-02-17T10:20:53.039Z,438.75
2019-02-17T10:21:53.173Z,438.75
2019-02-17T10:22:53.304Z,438.75
2019-02-17T10:23:53.437Z,450.00
2019-02-17T10:24:53.557Z,461.25
2019-02-17T10:25:53.696Z,466.88
2019-02-17T10:26:53.829Z,466.88
2019-02-17T10:27:53.960Z,483.75
2019-02-17T10:28:54.079Z,478.13
2019-02-17T10:29:54.213Z,489.38
2019-02-17T10:30:54.344Z,517.50
2019-02-17T10:31:54.471Z,585.00
2019-02-17T10:32:54.617Z,1012.50
2019-02-17T10:33:54.741Z,1366.88
2019-02-17T10:34:54.870Z,1456.88
2019-02-17T10:35:55.003Z,1738.13
2019-02-17T10:36:55.131Z,1248.75
2019-02-17T10:37:55.264Z,1445.63
2019-02-17T10:38:55.384Z,1732.50
2019-02-17T10:39:55.522Z,2227.50
2019-02-17T10:40:55.658Z,2790.00
2019-02-17T10:41:55.800Z,2964.38
2019-02-17T10:42:55.934Z,2356.88
2019-02-17T10:43:56.069Z,2345.63
2019-02-17T10:44:56.177Z,1985.63
2019-02-17T10:45:56.312Z,1726.88
2019-02-17T10:46:56.447Z,1726.88
2019-02-17T10:47:56.590Z,1828.13
2019-02-17T10:48:56.737Z,2210.63
2019-02-17T10:49:56.865Z,2469.38
2019-02-17T10:50:57.003Z,2356.88
2019-02-17T10:51:57.135Z,2362.50
2019-02-17T10:52:57.260Z,2272.50
2019-02-17T10:53:57.399Z,2131.88
2019-02-17T10:54:57.539Z,2030.63
2019-02-17T10:55:57.671Z,1625.63
2019-02-17T10:56:57.791Z,2137.50
2019-02-17T10:57:57.941Z,2705.63
2019-02-17T10:58:58.075Z,2491.88
2019-02-17T10:59:58.224Z,2525.63
2019-02-17T11:00:58.383Z,2880.00
2019-02-17T11:01:58.484Z,2970.00
2019-02-17T11:02:58.610Z,2941.88
2019-02-17T11:03:58.745Z,2812.50
2019-02-17T11:04:58.885Z,2666.25
2019-02-17T11:05:59.028Z,2458.13
2019-02-17T11:06:59.964Z,2756.25
2019-02-17T11:07:59.312Z,2902.50
2019-02-17T11:08:59.453Z,2311.88
2019-02-17T11:09:59.585Z,1316.25
2019-02-17T11:10:59.713Z,1175.63
2019-02-17T11:11:59.867Z,1726.88
2019-02-17T11:12:59.991Z,2351.25
2019-02-17T11:14:00.136Z,2368.13
2019-02-17T11:15:00.367Z,2385.00
2019-02-17T11:16:00.423Z,2739.38
2019-02-17T11:17:00.586Z,2593.13
2019-02-17T11:18:00.716Z,2401.88
2019-02-17T11:19:00.845Z,2148.75
2019-02-17T11:20:01.019Z,1777.50
2019-02-17T11:21:01.142Z,2109.38
2019-02-17T11:22:01.274Z,2902.50
2019-02-17T11:23:01.416Z,2885.63
2019-02-17T11:24:01.569Z,2536.88
2019-02-17T11:25:01.710Z,1912.50
2019-02-17T11:26:01.837Z,1389.38
2019-02-17T11:27:01.979Z,967.50
2019-02-17T11:28:02.138Z,1158.75
2019-02-17T11:29:02.296Z,2216.25
2019-02-17T11:30:02.403Z,3391.88
2019-02-17T11:31:02.543Z,3583.13
2019-02-17T11:32:02.687Z,3504.38
2019-02-17T11:33:02.829Z,3217.50
2019-02-17T11:34:02.964Z,3251.25
2019-02-17T11:35:03.107Z,3093.75
2019-02-17T11:36:03.237Z,2722.50
2019-02-17T11:37:03.374Z,2598.75
2019-02-17T11:38:03.511Z,2160.00
2019-02-17T11:39:03.651Z,2458.13
2019-02-17T11:40:03.813Z,2576.25
2019-02-17T11:41:03.940Z,3003.75
2019-02-17T11:42:04.105Z,2975.63
2019-02-17T11:43:04.248Z,2829.38
2019-02-17T11:44:04.412Z,3031.88
2019-02-17T11:45:04.562Z,2801.25
2019-02-17T11:46:04.696Z,2424.38
2019-02-17T11:47:07.245Z,2621.25
2019-02-17T11:48:04.983Z,2368.13
2019-02-17T11:49:05.122Z,1951.88
2019-02-17T11:50:05.269Z,1878.75
2019-02-17T11:51:05.420Z,2171.25
2019-02-17T11:52:05.562Z,1991.25
2019-02-17T11:53:05.713Z,1766.25
2019-02-17T11:54:05.843Z,1996.88
2019-02-17T11:55:05.991Z,2075.63
2019-02-17T11:56:06.117Z,2626.88
2019-02-17T11:57:06.265Z,2683.13
2019-02-17T11:58:06.395Z,2677.50
2019-02-17T11:59:06.551Z,2424.38
2019-02-17T12:00:06.692Z,2559.38
2019-02-17T12:01:06.830Z,3009.38
2019-02-17T12:02:06.970Z,3082.50
2019-02-17T12:03:08.312Z,3150.00
2019-02-17T12:04:07.260Z,3200.63
2019-02-17T12:05:07.457Z,3470.63
2019-02-17T12:06:07.555Z,3223.13
2019-02-17T12:07:07.692Z,3150.00
2019-02-17T12:08:07.843Z,3065.63
2019-02-17T12:09:08.006Z,3667.50
2019-02-17T12:10:08.131Z,3825.00
2019-02-17T12:11:08.273Z,3926.25
2019-02-17T12:12:08.402Z,3830.63
2019-02-17T12:13:08.553Z,3796.88
2019-02-17T12:14:08.702Z,3858.75
2019-02-17T12:15:08.842Z,3481.88
2019-02-17T12:16:08.997Z,3256.88
2019-02-17T12:17:09.132Z,3127.50
2019-02-17T12:18:09.272Z,3510.00
2019-02-17T12:19:09.442Z,4050.00
2019-02-17T12:20:09.579Z,4128.75
2019-02-17T12:21:09.709Z,3386.25
2019-02-17T12:22:09.862Z,3830.63
2019-02-17T12:23:09.995Z,4128.75
2019-02-17T12:24:10.165Z,4173.75
2019-02-17T12:25:10.302Z,3718.13
2019-02-17T12:26:10.451Z,3200.63
2019-02-17T12:27:10.610Z,2497.50
2019-02-17T12:28:10.738Z,2362.50
2019-02-17T12:29:10.882Z,2008.13
2019-02-17T12:30:11.039Z,2086.88
2019-02-17T12:31:11.184Z,2491.88
2019-02-17T12:32:11.333Z,2058.75
2019-02-17T12:33:17.967Z,1676.25
2019-02-17T12:34:11.625Z,1794.38
2019-02-17T12:35:11.767Z,1771.88
2019-02-17T12:36:11.929Z,2115.00
2019-02-17T12:37:12.065Z,2497.50
2019-02-17T12:38:12.215Z,2829.38
2019-02-17T12:39:12.370Z,2328.75
2019-02-17T12:40:12.503Z,2137.50
2019-02-17T12:41:12.657Z,2092.50
2019-02-17T12:42:12.804Z,1985.63
2019-02-17T12:43:12.945Z,2092.50
2019-02-17T12:44:13.116Z,2356.88
2019-02-17T12:45:16.222Z,2553.75
2019-02-17T12:46:13.402Z,2705.63
2019-02-17T12:47:13.558Z,2806.88
2019-02-17T12:48:13.695Z,2975.63
2019-02-17T12:49:13.839Z,3155.63
2019-02-17T12:50:14.006Z,3009.38
2019-02-17T12:51:14.147Z,3060.00
2019-02-17T12:52:14.339Z,3116.25
2019-02-17T12:53:14.478Z,3228.75